createdAt,value
2023-01-17T00:01:07.807Z,5.60
2023-01-17T00:03:37.653Z,4.60
2023-01-17T00:06:04.465Z,6.50
2023-01-17T00:08:31.039Z,5.70
2023-01-17T00:10:57.607Z,6.50
2023-01-17T00:13:24.143Z,6.30
2023-01-17T00:15:50.729Z,5.80
2023-01-17T00:18:17.336Z,14.90
2023-01-17T00:20:43.813Z,5.20
2023-01-17T00:23:39.788Z,5.50
2023-01-17T00:26:14.713Z,7.80
2023-01-17T00:28:42.474Z,6.80
2023-01-17T00:31:10.949Z,7.10
2023-01-17T00:33:37.477Z,5.70
2023-01-17T00:36:05.327Z,7.10
2023-01-17T00:38:34.464Z,4.30
2023-01-17T00:41:13.086Z,5.60
2023-01-17T00:43:40.330Z,7.90
2023-01-17T00:46:07.909Z,6.40
2023-01-17T00:48:36.019Z,4.10
2023-01-17T00:51:03.451Z,4.90
2023-01-17T00:53:29.987Z,4.00
2023-01-17T00:56:00.112Z,4.80
2023-01-17T00:58:26.504Z,4.70
2023-01-17T01:00:53.612Z,5.80
2023-01-17T01:03:20.613Z,4.80
2023-01-17T01:05:47.039Z,4.50
2023-01-17T01:08:24.709Z,3.70
2023-01-17T01:10:51.164Z,3.70
2023-01-17T01:13:18.747Z,4.30
2023-01-17T01:15:45.269Z,4.20
2023-01-17T01:18:12.725Z,4.30
2023-01-17T01:20:39.259Z,5.20
2023-01-17T01:23:06.209Z,5.50
2023-01-17T01:25:32.710Z,4.70
2023-01-17T01:28:07.040Z,5.50
2023-01-17T01:30:33.522Z,5.40
2023-01-17T01:33:07.627Z,4.90
2023-01-17T01:35:36.763Z,6.10
2023-01-17T01:38:03.757Z,5.30
2023-01-17T01:40:30.324Z,5.10
2023-01-17T01:42:59.223Z,4.80
2023-01-17T01:45:31.559Z,5.50
2023-01-17T01:48:14.760Z,7.10
2023-01-17T01:50:41.500Z,5.40
2023-01-17T01:53:08.205Z,7.20
2023-01-17T01:55:40.314Z,7.10
2023-01-17T01:58:24.246Z,6.80
2023-01-17T02:00:51.988Z,12.40
2023-01-17T02:03:26.943Z,6.20
2023-01-17T02:05:53.707Z,5.90
2023-01-17T02:08:23.004Z,6.40
2023-01-17T02:10:50.821Z,7.90
2023-01-17T02:13:20.705Z,8.60
2023-01-17T02:16:08.829Z,7.30
2023-01-17T02:19:11.082Z,6.10
2023-01-17T02:22:03.648Z,7.40
2023-01-17T02:24:51.891Z,6.10
2023-01-17T02:27:31.435Z,8.80
2023-01-17T02:30:23.059Z,9.60
2023-01-17T02:35:47.068Z,7.10
2023-01-17T02:38:34.400Z,5.50
2023-01-17T02:41:07.053Z,5.50
2023-01-17T02:43:35.214Z,5.80
2023-01-17T02:46:01.838Z,5.80
2023-01-17T02:48:31.749Z,5.40
2023-01-17T02:51:10.455Z,4.70
2023-01-17T02:54:01.977Z,6.10
2023-01-17T02:56:46.751Z,6.60
2023-01-17T02:59:32.122Z,4.80
2023-01-17T03:02:14.179Z,5.50
2023-01-17T03:04:49.508Z,5.80
2023-01-17T03:07:21.964Z,7.50
2023-01-17T03:09:51.093Z,6.60
2023-01-17T03:12:17.603Z,6.90
2023-01-17T03:14:44.076Z,6.50
2023-01-17T03:17:10.687Z,4.70
2023-01-17T03:19:37.158Z,5.70
2023-01-17T03:22:03.799Z,4.40
2023-01-17T03:24:30.758Z,5.80
2023-01-17T03:26:57.253Z,5.80
2023-01-17T03:29:24.067Z,13.10
2023-01-17T03:31:50.534Z,13.60
2023-01-17T03:34:16.971Z,8.70
2023-01-17T03:36:43.444Z,8.60
2023-01-17T03:39:09.901Z,8.50
2023-01-17T03:41:36.320Z,7.80
2023-01-17T03:44:02.823Z,7.20
2023-01-17T03:46:29.377Z,7.30
2023-01-17T03:48:55.837Z,9.40
2023-01-17T03:51:22.556Z,14.50
2023-01-17T03:53:49.292Z,9.20
2023-01-17T03:56:15.830Z,8.30
2023-01-17T03:58:42.712Z,15.70
2023-01-17T04:01:09.502Z,9.20
2023-01-17T04:03:35.955Z,7.60
2023-01-17T04:06:02.412Z,6.50
2023-01-17T04:08:28.818Z,6.80
2023-01-17T04:10:55.280Z,7.20
2023-01-17T04:13:21.919Z,8.50
2023-01-17T04:15:50.532Z,5.90
2023-01-17T04:18:19.403Z,8.00
2023-01-17T04:20:46.507Z,6.60
2023-01-17T04:23:13.177Z,5.30
2023-01-17T04:25:39.639Z,4.80
2023-01-17T04:28:06.185Z,6.00
2023-01-17T04:30:33.488Z,6.00
2023-01-17T04:33:00.318Z,7.10
2023-01-17T04:35:26.931Z,5.60
2023-01-17T04:37:53.402Z,4.70
2023-01-17T04:40:20.317Z,9.40
2023-01-17T04:42:47.982Z,8.20
2023-01-17T04:45:15.460Z,4.40
2023-01-17T04:47:41.900Z,5.80
2023-01-17T04:50:10.013Z,4.40
2023-01-17T04:52:36.531Z,5.80
2023-01-17T04:55:03.015Z,4.70
2023-01-17T04:57:29.774Z,5.30
2023-01-17T04:59:56.314Z,3.50
2023-01-17T05:02:22.995Z,4.70
2023-01-17T05:04:50.125Z,9.60
2023-01-17T05:07:16.525Z,5.60
2023-01-17T05:09:43.026Z,6.40
2023-01-17T05:12:09.886Z,4.50
2023-01-17T05:14:36.382Z,2.50
2023-01-17T05:17:03.072Z,7.90
2023-01-17T05:19:29.998Z,4.90
2023-01-17T05:21:56.421Z,6.00
2023-01-17T05:24:23.166Z,5.60
2023-01-17T05:26:50.337Z,13.20
2023-01-17T05:29:16.961Z,11.30
2023-01-17T05:31:43.432Z,11.90
2023-01-17T05:34:10.140Z,8.80
2023-01-17T05:36:36.681Z,9.00
2023-01-17T05:39:03.188Z,12.20
2023-01-17T05:41:29.797Z,13.90
2023-01-17T05:43:56.517Z,15.60
2023-01-17T05:46:23.135Z,16.60
2023-01-17T05:48:49.689Z,17.50
2023-01-17T05:51:16.089Z,15.30
2023-01-17T05:53:42.556Z,10.00
2023-01-17T05:56:09.013Z,12.60
2023-01-17T05:58:35.541Z,11.50
2023-01-17T06:01:02.055Z,8.60
2023-01-17T06:03:28.617Z,9.30
2023-01-17T06:05:55.086Z,11.60
2023-01-17T06:08:21.734Z,10.30
2023-01-17T06:10:48.279Z,11.40
2023-01-17T06:13:15.034Z,17.20
2023-01-17T06:15:42.309Z,13.30
2023-01-17T06:18:11.743Z,8.90
2023-01-17T06:20:39.407Z,8.20
2023-01-17T06:23:08.192Z,7.70
2023-01-17T06:25:43.499Z,8.00
2023-01-17T06:28:11.537Z,7.50
2023-01-17T06:30:38.189Z,12.60
2023-01-17T06:33:05.756Z,9.00
2023-01-17T06:35:33.100Z,9.70
2023-01-17T06:37:59.647Z,8.20
2023-01-17T06:40:27.822Z,8.00
2023-01-17T06:42:54.848Z,6.40
2023-01-17T06:45:21.616Z,8.50
2023-01-17T06:47:48.067Z,6.90
2023-01-17T06:50:15.116Z,9.40
2023-01-17T06:52:42.555Z,7.70
2023-01-17T06:55:10.227Z,7.90
2023-01-17T06:57:36.728Z,11.70
2023-01-17T07:00:04.337Z,19.90
2023-01-17T07:02:30.878Z,11.60
2023-01-17T07:04:57.491Z,13.10
2023-01-17T07:07:23.963Z,8.50
2023-01-17T07:09:50.496Z,9.00
2023-01-17T07:12:16.901Z,8.60
2023-01-17T07:14:43.484Z,9.60
2023-01-17T07:17:10.020Z,7.90
2023-01-17T07:19:36.453Z,10.80
2023-01-17T07:22:02.946Z,12.20
2023-01-17T07:24:29.441Z,16.30
2023-01-17T07:26:55.919Z,9.30
2023-01-17T07:29:22.410Z,9.70
2023-01-17T07:31:49.256Z,9.90
2023-01-17T07:34:15.896Z,10.70
2023-01-17T07:36:42.436Z,10.30
2023-01-17T07:39:11.003Z,7.20
2023-01-17T07:41:37.405Z,8.20
2023-01-17T07:44:04.055Z,11.30
2023-01-17T07:46:30.830Z,24.10
2023-01-17T07:48:57.398Z,31.70
2023-01-17T07:51:23.935Z,28.40
2023-01-17T07:53:50.615Z,30.90
2023-01-17T07:56:17.032Z,34.60
2023-01-17T07:58:43.440Z,29.20
2023-01-17T08:01:12.822Z,28.60
2023-01-17T08:03:40.024Z,17.90
2023-01-17T08:06:27.602Z,20.70
2023-01-17T08:08:54.089Z,22.90
2023-01-17T08:11:20.734Z,18.40
2023-01-17T08:13:47.696Z,18.80
2023-01-17T08:16:14.437Z,20.10
2023-01-17T08:18:41.360Z,20.20
2023-01-17T08:21:15.317Z,19.60
2023-01-17T08:23:41.842Z,16.00
2023-01-17T08:26:08.473Z,13.50
2023-01-17T08:28:35.110Z,13.90
2023-01-17T08:31:09.439Z,13.60
2023-01-17T08:33:36.025Z,16.70
2023-01-17T08:36:02.794Z,13.20
2023-01-17T08:38:29.309Z,14.40
2023-01-17T08:40:55.781Z,18.70
2023-01-17T08:43:22.385Z,16.80
2023-01-17T08:45:53.013Z,20.90
2023-01-17T08:48:19.477Z,24.60
2023-01-17T08:50:45.944Z,24.00
2023-01-17T08:53:12.402Z,28.50
2023-01-17T08:55:38.935Z,25.50
2023-01-17T08:58:05.585Z,27.60
2023-01-17T09:00:32.015Z,26.70
2023-01-17T09:02:58.569Z,28.20
2023-01-17T09:05:25.347Z,28.70
2023-01-17T09:07:51.890Z,28.20
2023-01-17T09:10:18.570Z,30.90
2023-01-17T09:12:44.973Z,34.80
2023-01-17T09:15:11.784Z,32.40
2023-01-17T09:17:38.312Z,28.90
2023-01-17T09:20:05.480Z,32.40
2023-01-17T09:22:32.110Z,33.70
2023-01-17T09:24:58.593Z,27.00
2023-01-17T09:27:25.018Z,23.10
2023-01-17T09:29:51.531Z,21.70
2023-01-17T09:32:17.960Z,18.00
2023-01-17T09:34:44.387Z,25.00
2023-01-17T09:37:10.949Z,21.90
2023-01-17T09:39:37.456Z,22.60
2023-01-17T09:42:36.389Z,16.30
2023-01-17T09:45:03.164Z,13.20
2023-01-17T09:47:42.029Z,18.80
2023-01-17T09:50:44.093Z,9.80
2023-01-17T09:53:16.920Z,13.60
2023-01-17T09:55:48.069Z,18.80
2023-01-17T09:58:43.281Z,18.70
2023-01-17T10:01:22.811Z,16.90
2023-01-17T10:04:06.047Z,16.20
2023-01-17T10:07:01.162Z,16.30
2023-01-17T10:09:58.111Z,11.20
2023-01-17T10:12:45.701Z,16.90
2023-01-17T10:15:46.196Z,17.40
2023-01-17T10:18:39.079Z,20.10
2023-01-17T10:21:39.035Z,13.00
2023-01-17T10:24:35.616Z,10.00
2023-01-17T10:27:13.175Z,9.30
2023-01-17T10:29:40.076Z,9.60
2023-01-17T10:32:11.663Z,9.20
2023-01-17T10:34:48.643Z,11.70
2023-01-17T10:37:23.214Z,11.90
2023-01-17T10:39:52.405Z,13.80
2023-01-17T10:42:26.535Z,11.40
2023-01-17T10:45:02.597Z,12.70
2023-01-17T10:47:34.233Z,14.30
2023-01-17T10:50:04.081Z,13.30
2023-01-17T10:52:47.418Z,11.50
2023-01-17T10:55:39.761Z,14.60
2023-01-17T10:58:11.651Z,12.10
2023-01-17T11:00:50.683Z,13.10
2023-01-17T11:03:19.234Z,15.20
2023-01-17T11:05:45.706Z,13.90
2023-01-17T11:08:15.418Z,11.40
2023-01-17T11:10:48.911Z,11.50
2023-01-17T11:13:21.383Z,10.00
2023-01-17T11:16:01.044Z,10.70
2023-01-17T11:18:31.334Z,10.20
2023-01-17T11:21:07.409Z,8.80
2023-01-17T11:23:35.916Z,7.70
2023-01-17T11:26:06.978Z,9.40
2023-01-17T11:28:35.856Z,8.60
2023-01-17T11:31:05.922Z,8.40
2023-01-17T11:33:43.721Z,10.70
2023-01-17T11:36:19.679Z,11.70
2023-01-17T11:39:00.199Z,10.70
2023-01-17T11:41:27.277Z,9.50
2023-01-17T11:43:58.923Z,11.40
2023-01-17T11:46:26.575Z,12.70
2023-01-17T11:48:56.291Z,11.80
2023-01-17T11:51:42.992Z,12.50
2023-01-17T11:54:25.937Z,20.90
2023-01-17T11:57:00.472Z,11.40
2023-01-17T11:59:38.423Z,11.60
2023-01-17T12:02:21.096Z,14.90
2023-01-17T12:05:32.779Z,12.30
2023-01-17T12:08:24.619Z,7.50
2023-01-17T12:10:56.650Z,8.90
2023-01-17T12:14:04.599Z,10.50
2023-01-17T12:16:48.133Z,7.40
2023-01-17T12:19:43.965Z,6.90
2023-01-17T12:22:22.597Z,9.60
2023-01-17T12:25:00.794Z,5.70
2023-01-17T12:27:43.480Z,8.40
2023-01-17T12:30:16.344Z,4.80
2023-01-17T12:33:04.723Z,6.20
2023-01-17T12:35:42.353Z,6.50
2023-01-17T12:38:31.354Z,5.60
2023-01-17T12:41:29.264Z,5.50
2023-01-17T12:44:00.164Z,5.30
2023-01-17T12:46:44.558Z,5.30
2023-01-17T12:49:29.589Z,5.50
2023-01-17T12:52:03.430Z,7.80
2023-01-17T12:54:39.153Z,5.70
2023-01-17T12:57:17.904Z,6.00
2023-01-17T12:59:56.474Z,6.10
2023-01-17T13:03:05.423Z,6.70
2023-01-17T13:05:41.672Z,7.50
2023-01-17T13:08:41.411Z,7.30
2023-01-17T13:11:19.957Z,11.20
2023-01-17T13:13:46.470Z,7.90
2023-01-17T13:16:24.700Z,6.10
2023-01-17T13:19:35.597Z,9.20
2023-01-17T13:22:07.600Z,6.70
2023-01-17T13:24:59.034Z,8.60
2023-01-17T13:27:50.677Z,7.40
2023-01-17T13:30:49.458Z,5.30
2023-01-17T13:33:57.897Z,4.50
2023-01-17T13:36:56.639Z,7.50
2023-01-17T13:39:39.774Z,5.00
2023-01-17T13:42:52.356Z,5.10
2023-01-17T13:45:22.749Z,8.30
2023-01-17T13:47:49.317Z,9.90
2023-01-17T13:50:41.045Z,14.00
2023-01-17T13:53:35.851Z,13.30
2023-01-17T13:56:28.751Z,9.40
2023-01-17T13:58:58.198Z,17.50
2023-01-17T14:01:24.888Z,12.40
2023-01-17T14:03:51.686Z,16.70
2023-01-17T14:06:29.396Z,11.30
2023-01-17T14:09:10.316Z,10.10
2023-01-17T14:11:51.811Z,8.90
2023-01-17T14:14:40.347Z,10.00
2023-01-17T14:17:36.656Z,10.50
2023-01-17T14:20:05.882Z,12.30
2023-01-17T14:22:39.012Z,11.30
2023-01-17T14:25:25.101Z,10.70
2023-01-17T14:27:54.878Z,11.40
2023-01-17T14:30:35.187Z,10.40
2023-01-17T14:33:01.673Z,21.30
2023-01-17T14:35:28.228Z,27.70
2023-01-17T14:37:54.774Z,28.60
2023-01-17T14:40:24.258Z,25.70
2023-01-17T14:42:59.527Z,15.50
2023-01-17T14:45:29.266Z,16.50
2023-01-17T14:47:58.672Z,14.30
2023-01-17T14:50:28.511Z,12.90
2023-01-17T14:53:20.959Z,14.40
2023-01-17T14:55:47.780Z,14.50
2023-01-17T14:58:40.718Z,17.20
2023-01-17T15:01:19.629Z,15.80
2023-01-17T15:03:49.659Z,18.10
2023-01-17T15:06:21.028Z,14.90
2023-01-17T15:08:49.097Z,18.60
2023-01-17T15:11:25.721Z,23.50
2023-01-17T15:13:55.391Z,30.20
2023-01-17T15:16:29.087Z,24.20
2023-01-17T15:18:57.334Z,27.50
2023-01-17T15:21:28.071Z,25.50
2023-01-17T15:23:58.245Z,16.60
2023-01-17T15:26:28.367Z,11.30
2023-01-17T15:29:03.198Z,11.20
2023-01-17T15:32:00.142Z,10.90
2023-01-17T15:34:35.920Z,13.20
2023-01-17T15:37:08.116Z,9.00
2023-01-17T15:39:37.545Z,10.60
2023-01-17T15:42:08.422Z,9.90
2023-01-17T15:44:48.055Z,9.80
2023-01-17T15:47:36.582Z,11.20
2023-01-17T15:50:28.664Z,12.00
2023-01-17T15:53:04.717Z,12.30
2023-01-17T15:55:37.969Z,18.00
2023-01-17T15:58:21.358Z,41.20
2023-01-17T16:00:48.100Z,51.80
2023-01-17T16:03:28.553Z,53.60
2023-01-17T16:05:57.413Z,49.40
2023-01-17T16:08:33.101Z,42.60
2023-01-17T16:11:02.818Z,45.90
2023-01-17T16:13:31.346Z,44.10
2023-01-17T16:16:14.678Z,42.80
2023-01-17T16:18:41.865Z,51.30
2023-01-17T16:21:20.968Z,56.10
2023-01-17T16:23:48.318Z,55.50
2023-01-17T16:26:15.651Z,53.40
2023-01-17T16:28:42.394Z,57.00
2023-01-17T16:31:09.193Z,52.40
2023-01-17T16:33:35.689Z,54.50
2023-01-17T16:36:02.218Z,68.40
2023-01-17T16:38:28.787Z,79.70
2023-01-17T16:40:55.307Z,65.00
2023-01-17T16:43:21.793Z,62.90
2023-01-17T16:45:52.972Z,58.70
2023-01-17T16:48:20.582Z,54.20
2023-01-17T16:50:49.710Z,54.30
2023-01-17T16:53:18.038Z,61.90
2023-01-17T16:55:44.778Z,55.70
2023-01-17T16:58:11.277Z,53.60
2023-01-17T17:00:40.053Z,69.60
2023-01-17T17:03:06.873Z,62.20
2023-01-17T17:05:33.369Z,108.80
2023-01-17T17:08:01.176Z,142.70
2023-01-17T17:10:27.915Z,149.10
2023-01-17T17:12:54.499Z,149.60
2023-01-17T17:15:21.090Z,247.60
2023-01-17T17:17:47.734Z,199.40
2023-01-17T17:20:15.611Z,166.10
2023-01-17T17:22:49.015Z,175.80
2023-01-17T17:25:15.595Z,172.50
2023-01-17T17:27:42.113Z,199.90
2023-01-17T17:30:09.755Z,210.20
2023-01-17T17:32:36.602Z,196.40
2023-01-17T17:35:03.229Z,193.20
2023-01-17T17:37:29.683Z,173.50
2023-01-17T17:39:57.330Z,240.50
2023-01-17T17:42:23.884Z,185.90
2023-01-17T17:44:50.377Z,175.90
2023-01-17T17:47:16.864Z,160.10
2023-01-17T17:49:43.437Z,166.10
2023-01-17T17:52:09.883Z,159.20
2023-01-17T17:54:36.486Z,158.40
2023-01-17T17:57:02.953Z,188.80
2023-01-17T17:59:29.541Z,163.00
2023-01-17T18:01:56.235Z,171.20
2023-01-17T18:04:22.846Z,173.30
2023-01-17T18:06:49.325Z,162.80
2023-01-17T18:09:15.928Z,155.10
2023-01-17T18:11:43.678Z,166.30
2023-01-17T18:14:14.311Z,161.20
2023-01-17T18:16:44.063Z,174.70
2023-01-17T18:19:20.339Z,185.30
2023-01-17T18:21:49.009Z,134.00
2023-01-17T18:24:17.401Z,131.10
2023-01-17T18:26:47.134Z,127.20
2023-01-17T18:29:15.701Z,255.10
2023-01-17T18:31:43.811Z,186.80
2023-01-17T18:34:13.885Z,243.50
2023-01-17T18:36:41.271Z,318.20
2023-01-17T18:39:13.197Z,266.70
2023-01-17T18:41:39.752Z,271.10
2023-01-17T18:44:07.361Z,274.50
2023-01-17T18:46:35.124Z,290.00
2023-01-17T18:49:02.280Z,255.60
2023-01-17T18:51:30.532Z,244.90
2023-01-17T18:53:56.958Z,274.40
2023-01-17T18:56:23.971Z,376.90
2023-01-17T18:58:50.973Z,355.40
2023-01-17T19:01:20.617Z,417.50
2023-01-17T19:03:48.865Z,351.50
2023-01-17T19:06:19.442Z,287.20
2023-01-17T19:08:46.026Z,307.90
2023-01-17T19:11:12.877Z,328.00
2023-01-17T19:13:39.605Z,352.00
2023-01-17T19:16:09.051Z,379.00
2023-01-17T19:18:35.755Z,328.80
2023-01-17T19:21:11.519Z,340.80
2023-01-17T19:23:38.673Z,311.00
2023-01-17T19:26:07.576Z,325.50
2023-01-17T19:28:36.973Z,315.00
2023-01-17T19:31:07.818Z,357.00
2023-01-17T19:33:36.198Z,398.40
2023-01-17T19:36:04.282Z,423.90
2023-01-17T19:38:30.773Z,343.00
2023-01-17T19:40:57.931Z,385.70
2023-01-17T19:43:24.398Z,372.60
2023-01-17T19:45:58.161Z,347.10
2023-01-17T19:48:28.024Z,329.20
2023-01-17T19:50:55.705Z,284.10
2023-01-17T19:53:23.393Z,335.50
2023-01-17T19:55:50.097Z,422.30
2023-01-17T19:58:16.658Z,351.30
2023-01-17T20:00:46.674Z,315.80
2023-01-17T20:03:13.730Z,267.80
2023-01-17T20:05:40.498Z,265.60
2023-01-17T20:08:07.021Z,234.90
2023-01-17T20:10:33.488Z,223.80
2023-01-17T20:12:59.867Z,232.30
2023-01-17T20:15:26.557Z,210.30
2023-01-17T20:17:53.056Z,229.10
2023-01-17T20:20:19.667Z,190.50
2023-01-17T20:22:46.359Z,163.40
2023-01-17T20:25:13.103Z,135.10
2023-01-17T20:27:39.853Z,95.90
2023-01-17T20:30:19.255Z,127.10
2023-01-17T20:32:46.805Z,69.40
2023-01-17T20:35:13.505Z,78.50
2023-01-17T20:37:39.937Z,58.00
2023-01-17T20:40:07.121Z,45.40
2023-01-17T20:42:36.407Z,60.30
2023-01-17T20:45:03.040Z,64.70
2023-01-17T20:47:29.996Z,60.40
2023-01-17T20:49:56.474Z,60.10
2023-01-17T20:52:23.073Z,52.90
2023-01-17T20:54:49.508Z,43.10
2023-01-17T20:57:16.155Z,39.00
2023-01-17T20:59:42.594Z,30.80
2023-01-17T21:02:09.194Z,27.90
2023-01-17T21:04:35.799Z,23.50
2023-01-17T21:07:02.314Z,23.20
2023-01-17T21:09:28.853Z,20.30
2023-01-17T21:11:55.389Z,18.60
2023-01-17T21:14:22.139Z,17.00
2023-01-17T21:16:48.628Z,16.30
2023-01-17T21:19:15.221Z,17.90
2023-01-17T21:21:41.747Z,47.60
2023-01-17T21:24:08.441Z,65.00
2023-01-17T21:26:34.947Z,60.20
2023-01-17T21:29:01.432Z,58.90
2023-01-17T21:31:30.609Z,78.90
2023-01-17T21:34:03.601Z,78.90
2023-01-17T21:36:33.090Z,66.90
2023-01-17T21:39:02.175Z,85.50
2023-01-17T21:41:30.281Z,78.70
2023-01-17T21:43:59.111Z,72.20
2023-01-17T21:46:27.189Z,71.70
2023-01-17T21:48:53.974Z,66.60
2023-01-17T21:51:20.591Z,57.80
2023-01-17T21:53:47.242Z,37.50
2023-01-17T21:56:14.200Z,37.80
2023-01-17T21:58:40.778Z,35.60
2023-01-17T22:01:07.809Z,34.40
2023-01-17T22:03:35.596Z,36.90
2023-01-17T22:06:02.121Z,30.00
2023-01-17T22:08:33.066Z,28.00
2023-01-17T22:11:05.172Z,29.40
2023-01-17T22:13:31.775Z,29.80
2023-01-17T22:16:00.090Z,51.00
2023-01-17T22:18:28.287Z,43.40
2023-01-17T22:20:55.477Z,92.70
2023-01-17T22:23:22.118Z,65.10
2023-01-17T22:25:48.684Z,31.50
2023-01-17T22:28:15.199Z,95.40
2023-01-17T22:30:41.833Z,82.40
2023-01-17T22:33:08.389Z,52.90
2023-01-17T22:35:35.024Z,53.90
2023-01-17T22:38:01.438Z,109.20
2023-01-17T22:40:27.855Z,82.30
2023-01-17T22:42:54.772Z,55.00
2023-01-17T22:45:21.402Z,28.40
2023-01-17T22:47:47.937Z,14.50
2023-01-17T22:50:14.411Z,15.60
2023-01-17T22:52:40.922Z,17.80
2023-01-17T22:55:08.074Z,38.70
2023-01-17T22:57:34.610Z,28.90
2023-01-17T23:00:01.149Z,16.40
2023-01-17T23:02:27.721Z,18.50
2023-01-17T23:04:54.355Z,25.70
2023-01-17T23:07:20.878Z,17.10
2023-01-17T23:09:47.339Z,14.30
2023-01-17T23:12:13.767Z,13.60
2023-01-17T23:14:40.490Z,21.80
2023-01-17T23:17:08.195Z,17.20
2023-01-17T23:19:37.883Z,16.50
2023-01-17T23:22:07.415Z,18.90
2023-01-17T23:24:33.887Z,11.80
2023-01-17T23:27:00.321Z,12.40
2023-01-17T23:29:26.764Z,12.70
2023-01-17T23:31:53.292Z,11.00
2023-01-17T23:34:19.882Z,12.30
2023-01-17T23:36:46.723Z,17.40
2023-01-17T23:39:13.265Z,14.80
2023-01-17T23:41:39.812Z,13.90
2023-01-17T23:44:06.244Z,19.70
2023-01-17T23:46:32.757Z,18.20
2023-01-17T23:48:59.325Z,13.30
2023-01-17T23:51:25.863Z,17.30
2023-01-17T23:53:52.365Z,17.20
2023-01-17T23:56:22.223Z,12.70
2023-01-17T23:58:49.121Z,15.40
